Terminal Aerodrome Forecast
Issued by NWS

Home | Current Version | Previous Version | Text Only | Print | Product List | Glossary On
Versions: 1 2 3 4 5 6 7 8 9 10 11 12 13 14 15 16 17 18 19 20 21 22 23 24 25 26 27
000
FTUS42 KMFL 171728
TAFOPF
TAF
KOPF 171728Z 1718/1818 07011KT P6SM VCSH SCT050 SCT070 BKN100
     FM180000 08009KT P6SM SCT025 SCT050 BKN100
     FM181400 13013KT P6SM SCT030 BKN050=

USA.gov is the U.S. government's official web portal to all federal, state and local government web resources and services.